createdAt,value
2018-09-10T00:00:10.409Z,16.10
2018-09-10T00:02:39.156Z,16.00
2018-09-10T00:05:08.325Z,16.00
2018-09-10T00:07:37.308Z,15.90
2018-09-10T00:10:05.716Z,16.00
2018-09-10T00:12:34.398Z,15.90
2018-09-10T00:15:03.155Z,15.80
2018-09-10T00:17:32.235Z,15.80
2018-09-10T00:20:01.380Z,15.80
2018-09-10T00:22:30.104Z,15.80
2018-09-10T00:24:59.166Z,15.90
2018-09-10T00:27:28.186Z,15.80
2018-09-10T00:29:57.227Z,15.80
2018-09-10T00:32:26.232Z,15.80
2018-09-10T00:34:55.252Z,15.80
2018-09-10T00:37:23.687Z,15.80
2018-09-10T00:39:52.607Z,15.70
2018-09-10T00:42:21.245Z,15.70
2018-09-10T00:44:50.270Z,15.60
2018-09-10T00:47:18.936Z,15.40
2018-09-10T00:49:48.053Z,15.40
2018-09-10T00:52:17.062Z,15.40
2018-09-10T00:54:45.789Z,15.40
2018-09-10T00:57:14.511Z,15.40
2018-09-10T00:59:43.588Z,15.30
2018-09-10T01:02:12.233Z,15.40
2018-09-10T01:04:41.699Z,15.50
2018-09-10T01:07:10.437Z,15.40
2018-09-10T01:09:39.457Z,15.40
2018-09-10T01:12:07.859Z,15.30
2018-09-10T01:14:36.865Z,15.20
2018-09-10T01:17:05.446Z,15.20
2018-09-10T01:19:34.509Z,15.30
2018-09-10T01:22:03.205Z,15.20
2018-09-10T01:24:31.875Z,15.20
2018-09-10T01:27:00.936Z,15.20
2018-09-10T01:29:29.353Z,15.00
2018-09-10T01:31:58.009Z,15.10
2018-09-10T01:34:32.682Z,15.10
2018-09-10T01:37:01.340Z,15.10
2018-09-10T01:39:30.403Z,15.20
2018-09-10T01:41:59.110Z,15.20
2018-09-10T01:44:28.130Z,15.30
2018-09-10T01:46:57.244Z,15.40
2018-09-10T01:49:25.962Z,15.30
2018-09-10T01:51:54.696Z,15.30
2018-09-10T01:54:23.400Z,15.20
2018-09-10T01:56:52.029Z,15.40
2018-09-10T01:59:21.052Z,15.40
2018-09-10T02:01:49.994Z,15.40
2018-09-10T02:04:18.383Z,15.40
2018-09-10T02:06:47.114Z,15.20
2018-09-10T02:09:15.893Z,15.20
2018-09-10T02:11:44.250Z,15.30
2018-09-10T02:14:12.959Z,15.20
2018-09-10T02:16:41.639Z,15.20
2018-09-10T02:19:10.659Z,15.10
2018-09-10T02:21:39.682Z,15.30
2018-09-10T02:24:08.075Z,15.30
2018-09-10T02:26:36.833Z,15.30
2018-09-10T02:29:05.221Z,15.30
2018-09-10T02:31:33.722Z,15.30
2018-09-10T02:34:02.737Z,15.40
2018-09-10T02:36:31.661Z,15.30
2018-09-10T02:39:00.039Z,15.40
2018-09-10T02:41:29.061Z,15.30
2018-09-10T02:43:57.424Z,15.30
2018-09-10T02:46:26.086Z,15.30
2018-09-10T02:48:54.841Z,15.40
2018-09-10T02:51:23.893Z,15.50
2018-09-10T02:53:52.884Z,15.60
2018-09-10T02:56:21.600Z,15.70
2018-09-10T02:58:50.704Z,15.60
2018-09-10T03:01:19.366Z,15.60
2018-09-10T03:03:48.350Z,15.60
2018-09-10T03:06:17.480Z,15.60
2018-09-10T03:08:46.191Z,15.50
2018-09-10T03:11:14.512Z,15.40
2018-09-10T03:13:43.227Z,15.50
2018-09-10T03:16:12.306Z,15.50
2018-09-10T03:18:41.373Z,15.40
2018-09-10T03:21:10.450Z,15.40
2018-09-10T03:23:39.550Z,15.30
2018-09-10T03:26:08.636Z,15.50
2018-09-10T03:28:37.637Z,15.40
2018-09-10T03:31:06.594Z,15.40
2018-09-10T03:33:35.605Z,15.40
2018-09-10T03:36:04.774Z,15.40
2018-09-10T03:38:33.740Z,15.30
2018-09-10T03:41:02.783Z,15.30
2018-09-10T03:43:31.831Z,15.10
2018-09-10T03:46:00.854Z,15.10
2018-09-10T03:48:29.902Z,15.10
2018-09-10T03:50:58.909Z,15.10
2018-09-10T03:53:27.596Z,15.10
2018-09-10T03:55:56.636Z,15.10
2018-09-10T03:58:25.695Z,15.10
2018-09-10T04:00:54.454Z,15.10
2018-09-10T04:03:23.506Z,15.00
2018-09-10T04:05:52.186Z,14.90
2018-09-10T04:08:21.219Z,14.90
2018-09-10T04:10:50.212Z,14.80
2018-09-10T04:13:19.622Z,14.90
2018-09-10T04:15:48.487Z,14.90
2018-09-10T04:18:17.266Z,14.80
2018-09-10T04:20:46.626Z,14.90
2018-09-10T04:23:15.685Z,14.90
2018-09-10T04:25:44.722Z,14.90
2018-09-10T04:28:13.834Z,15.00
2018-09-10T04:30:42.517Z,15.00
2018-09-10T04:33:11.502Z,14.90
2018-09-10T04:35:40.576Z,14.90
2018-09-10T04:38:09.593Z,14.90
2018-09-10T04:40:38.294Z,14.90
2018-09-10T04:43:07.037Z,14.90
2018-09-10T04:45:36.085Z,14.90
2018-09-10T04:48:04.796Z,14.90
2018-09-10T04:50:34.054Z,15.00
2018-09-10T04:53:03.068Z,15.00
2018-09-10T04:55:32.275Z,15.10
2018-09-10T04:58:01.357Z,15.10
2018-09-10T05:00:30.630Z,15.20
2018-09-10T05:02:58.957Z,15.50
2018-09-10T05:05:27.989Z,15.60
2018-09-10T05:07:56.682Z,15.60
2018-09-10T05:10:25.725Z,15.60
2018-09-10T05:12:54.512Z,15.60
2018-09-10T05:15:23.219Z,15.50
2018-09-10T05:17:52.239Z,15.40
2018-09-10T05:20:21.280Z,15.50
2018-09-10T05:22:50.231Z,15.50
2018-09-10T05:25:19.264Z,15.60
2018-09-10T05:27:48.273Z,15.60
2018-09-10T05:30:17.003Z,15.70
2018-09-10T05:32:45.822Z,15.60
2018-09-10T05:35:14.222Z,15.80
2018-09-10T05:37:42.813Z,15.90
2018-09-10T05:40:11.352Z,15.90
2018-09-10T05:42:40.286Z,16.00
2018-09-10T05:45:10.801Z,16.00
2018-09-10T05:47:39.845Z,16.00
2018-09-10T05:50:08.324Z,16.00
2018-09-10T05:52:37.079Z,15.90
2018-09-10T05:55:05.439Z,15.90
2018-09-10T05:57:34.202Z,15.90
2018-09-10T06:00:02.907Z,15.80
2018-09-10T06:02:31.655Z,15.70
2018-09-10T06:05:00.334Z,15.50
2018-09-10T06:07:29.415Z,15.50
2018-09-10T06:09:58.532Z,15.50
2018-09-10T06:12:27.057Z,15.60
2018-09-10T06:14:56.279Z,15.60
2018-09-10T06:17:25.299Z,15.70
2018-09-10T06:19:54.355Z,15.70
2018-09-10T06:22:22.934Z,15.80
2018-09-10T06:24:51.942Z,16.10
2018-09-10T06:27:20.778Z,16.30
2018-09-10T06:29:49.214Z,16.80
2018-09-10T06:32:17.638Z,17.50
2018-09-10T06:34:46.565Z,18.20
2018-09-10T06:37:15.417Z,18.80
2018-09-10T06:39:44.016Z,19.10
2018-09-10T06:42:12.547Z,19.50
2018-09-10T06:44:41.363Z,19.70
2018-09-10T06:47:10.147Z,19.90
2018-09-10T06:49:39.138Z,20.00
2018-09-10T06:52:07.894Z,20.10
2018-09-10T06:54:36.327Z,20.10
2018-09-10T06:57:04.744Z,20.10
2018-09-10T06:59:33.575Z,20.30
2018-09-10T07:02:02.348Z,20.70
2018-09-10T07:04:30.802Z,21.20
2018-09-10T07:06:59.235Z,21.20
2018-09-10T07:09:28.030Z,21.30
2018-09-10T07:11:56.754Z,21.30
2018-09-10T07:14:25.549Z,21.10
2018-09-10T07:16:54.007Z,20.90
2018-09-10T07:19:22.134Z,21.00
2018-09-10T07:21:50.696Z,21.50
2018-09-10T07:24:19.483Z,22.20
2018-09-10T07:26:48.232Z,23.10
2018-09-10T07:29:16.994Z,23.60
2018-09-10T07:31:45.527Z,24.30
2018-09-10T07:34:14.311Z,24.80
2018-09-10T07:36:42.780Z,24.90
2018-09-10T07:39:11.885Z,24.70
2018-09-10T07:41:40.756Z,24.40
2018-09-10T07:44:09.601Z,24.60
2018-09-10T07:46:38.248Z,24.70
2018-09-10T07:49:06.929Z,25.00
2018-09-10T07:51:35.637Z,25.30
2018-09-10T07:54:03.795Z,25.50
2018-09-10T07:56:32.559Z,26.00
2018-09-10T07:59:00.998Z,26.40
2018-09-10T08:01:29.081Z,27.00
2018-09-10T08:03:57.899Z,27.20
2018-09-10T08:06:26.702Z,27.70
2018-09-10T08:08:55.368Z,28.00
2018-09-10T08:11:23.739Z,27.80
2018-09-10T08:13:52.486Z,27.60
2018-09-10T08:16:21.023Z,27.90
2018-09-10T08:18:49.811Z,28.00
2018-09-10T08:21:18.332Z,27.90
2018-09-10T08:23:46.854Z,27.70
2018-09-10T08:26:15.436Z,27.80
2018-09-10T08:28:43.906Z,27.80
2018-09-10T08:31:12.655Z,27.70
2018-09-10T08:33:40.779Z,27.70
2018-09-10T08:36:09.271Z,28.00
2018-09-10T08:38:37.678Z,27.90
2018-09-10T08:41:06.080Z,27.70
2018-09-10T08:43:35.189Z,28.10
2018-09-10T08:46:03.598Z,28.60
2018-09-10T08:48:34.883Z,28.60
2018-09-10T08:51:03.687Z,28.50
2018-09-10T08:53:32.126Z,28.40
2018-09-10T08:56:01.112Z,28.30
2018-09-10T08:58:29.529Z,28.10
2018-09-10T09:00:57.942Z,28.70
2018-09-10T09:03:26.730Z,28.90
2018-09-10T09:05:54.867Z,29.00
2018-09-10T09:08:23.745Z,28.70
2018-09-10T09:10:52.611Z,28.40
2018-09-10T09:13:21.012Z,28.00
2018-09-10T09:15:49.181Z,27.20
2018-09-10T09:18:17.602Z,26.80
2018-09-10T09:20:46.355Z,26.40
2018-09-10T09:23:15.170Z,26.30
2018-09-10T09:25:44.079Z,26.20
2018-09-10T09:28:12.806Z,25.90
2018-09-10T09:30:41.617Z,25.80
2018-09-10T09:33:10.340Z,25.70
2018-09-10T09:35:44.607Z,25.60
2018-09-10T09:38:18.918Z,25.40
2018-09-10T09:40:53.378Z,25.40
2018-09-10T09:43:27.657Z,25.30
2018-09-10T09:46:01.914Z,25.30
2018-09-10T09:48:30.336Z,25.40
2018-09-10T09:50:58.768Z,25.40
2018-09-10T09:53:27.703Z,25.20
2018-09-10T09:55:55.770Z,25.10
2018-09-10T09:58:24.862Z,25.10
2018-09-10T10:00:56.302Z,25.30
2018-09-10T10:03:31.440Z,25.50
2018-09-10T10:06:00.214Z,25.80
2018-09-10T10:08:28.819Z,26.10
2018-09-10T10:10:57.582Z,26.50
2018-09-10T10:13:26.085Z,26.90
2018-09-10T10:15:55.105Z,27.20
2018-09-10T10:18:23.517Z,27.20
2018-09-10T10:20:52.342Z,27.20
2018-09-10T10:23:20.970Z,27.30
2018-09-10T10:25:50.316Z,27.50
2018-09-10T10:28:18.944Z,28.10
2018-09-10T10:30:47.781Z,28.10
2018-09-10T10:33:15.935Z,28.50
2018-09-10T10:35:44.655Z,28.20
2018-09-10T10:38:13.510Z,28.40
2018-09-10T10:40:41.947Z,28.70
2018-09-10T10:43:10.631Z,28.80
2018-09-10T10:45:39.437Z,29.00
2018-09-10T10:48:08.269Z,28.90
2018-09-10T10:50:36.982Z,28.70
2018-09-10T10:53:05.166Z,28.70
2018-09-10T10:55:34.156Z,28.80
2018-09-10T10:58:02.682Z,28.70
2018-09-10T11:00:31.466Z,28.50
2018-09-10T11:03:00.312Z,28.00
2018-09-10T11:05:28.756Z,27.50
2018-09-10T11:07:57.482Z,27.20
2018-09-10T11:10:26.290Z,27.20
2018-09-10T11:12:55.003Z,27.00
2018-09-10T11:15:23.464Z,27.50
2018-09-10T11:17:51.947Z,28.90
2018-09-10T11:20:20.484Z,29.90
2018-09-10T11:22:48.866Z,30.20
2018-09-10T11:25:17.467Z,30.10
2018-09-10T11:27:46.064Z,29.30
2018-09-10T11:30:17.192Z,28.40
2018-09-10T11:32:45.922Z,27.50
2018-09-10T11:35:14.420Z,27.30
2018-09-10T11:37:43.151Z,28.00
2018-09-10T11:40:12.268Z,29.00
2018-09-10T11:42:41.265Z,29.80
2018-09-10T11:45:10.019Z,30.50
2018-09-10T11:47:38.462Z,31.50
2018-09-10T11:50:06.717Z,31.60
2018-09-10T11:52:35.483Z,31.00
2018-09-10T11:55:04.127Z,30.40
2018-09-10T11:57:32.953Z,29.50
2018-09-10T12:00:01.678Z,28.80
2018-09-10T12:02:30.886Z,28.90
2018-09-10T12:04:59.482Z,29.30
2018-09-10T12:07:28.390Z,30.00
2018-09-10T12:09:57.190Z,31.30
2018-09-10T12:12:25.688Z,32.10
2018-09-10T12:14:54.418Z,31.30
2018-09-10T12:17:23.263Z,30.80
2018-09-10T12:19:51.984Z,29.60
2018-09-10T12:22:20.522Z,29.20
2018-09-10T12:24:49.829Z,28.50
2018-09-10T12:27:18.384Z,28.10
2018-09-10T12:29:47.154Z,28.00
2018-09-10T12:32:15.665Z,27.90
2018-09-10T12:34:44.639Z,27.80
2018-09-10T12:37:13.035Z,27.60
2018-09-10T12:39:41.831Z,27.40
2018-09-10T12:42:10.715Z,27.20
2018-09-10T12:44:39.508Z,27.20
2018-09-10T12:47:08.250Z,27.20
2018-09-10T12:49:37.198Z,27.30
2018-09-10T12:52:06.106Z,27.30
2018-09-10T12:54:34.818Z,27.40
2018-09-10T12:57:03.198Z,27.40
2018-09-10T12:59:31.903Z,27.30
2018-09-10T13:02:00.334Z,27.10
2018-09-10T13:04:28.826Z,26.80
2018-09-10T13:06:57.500Z,26.50
2018-09-10T13:09:26.221Z,26.40
2018-09-10T13:11:54.946Z,26.30
2018-09-10T13:14:23.691Z,26.30
2018-09-10T13:16:52.421Z,26.30
2018-09-10T13:19:21.205Z,26.30
2018-09-10T13:21:49.241Z,26.40
2018-09-10T13:24:17.909Z,26.40
2018-09-10T13:26:46.731Z,26.50
2018-09-10T13:29:15.506Z,26.60
2018-09-10T13:31:44.231Z,26.60
2018-09-10T13:34:13.025Z,26.60
2018-09-10T13:36:41.475Z,26.60
2018-09-10T13:39:10.038Z,26.60
2018-09-10T13:41:38.749Z,26.50
2018-09-10T13:44:07.872Z,26.40
2018-09-10T13:46:36.257Z,26.50
2018-09-10T13:49:04.625Z,26.50
2018-09-10T13:51:33.364Z,26.40
2018-09-10T13:54:02.184Z,26.50
2018-09-10T13:56:30.742Z,26.50
2018-09-10T13:58:59.441Z,26.50
2018-09-10T14:01:27.844Z,26.50
2018-09-10T14:03:56.285Z,26.50
2018-09-10T14:06:25.029Z,26.40
2018-09-10T14:08:53.490Z,26.40
2018-09-10T14:11:22.292Z,26.40
2018-09-10T14:13:51.178Z,26.40
2018-09-10T14:16:19.919Z,26.40
2018-09-10T14:18:48.830Z,26.50
2018-09-10T14:21:17.552Z,26.50
2018-09-10T14:23:46.504Z,26.50
2018-09-10T14:26:15.239Z,26.50
2018-09-10T14:28:43.966Z,26.50
2018-09-10T14:31:12.388Z,26.60
2018-09-10T14:33:41.853Z,26.80
2018-09-10T14:36:10.325Z,26.90
2018-09-10T14:38:38.747Z,27.00
2018-09-10T14:41:07.035Z,27.10
2018-09-10T14:43:35.746Z,27.20
2018-09-10T14:46:03.790Z,27.10
2018-09-10T14:48:32.545Z,26.90
2018-09-10T14:51:01.197Z,26.90
2018-09-10T14:53:29.913Z,26.70
2018-09-10T14:55:58.657Z,26.50
2018-09-10T14:58:27.459Z,26.50
2018-09-10T15:00:56.381Z,26.30
2018-09-10T15:03:25.218Z,26.20
2018-09-10T15:05:54.021Z,26.10
2018-09-10T15:08:22.621Z,25.90
2018-09-10T15:10:50.980Z,25.70
2018-09-10T15:13:19.744Z,25.70
2018-09-10T15:15:48.515Z,25.70
2018-09-10T15:18:17.308Z,25.60
2018-09-10T15:20:46.140Z,25.60
2018-09-10T15:23:14.521Z,25.50
2018-09-10T15:25:42.916Z,25.50
2018-09-10T15:28:11.659Z,25.40
2018-09-10T15:30:40.116Z,25.30
2018-09-10T15:33:08.865Z,25.30
2018-09-10T15:35:37.292Z,25.20
2018-09-10T15:38:05.693Z,25.10
2018-09-10T15:40:34.097Z,25.10
2018-09-10T15:43:02.709Z,25.00
2018-09-10T15:45:31.436Z,24.90
2018-09-10T15:47:59.978Z,24.90
2018-09-10T15:50:28.382Z,24.90
2018-09-10T15:52:57.171Z,24.80
2018-09-10T15:55:25.550Z,24.70
2018-09-10T15:57:54.261Z,24.70
2018-09-10T16:00:23.039Z,24.60
2018-09-10T16:02:51.785Z,24.60
2018-09-10T16:05:20.492Z,24.60
2018-09-10T16:07:49.256Z,24.50
2018-09-10T16:10:17.549Z,24.40
2018-09-10T16:12:45.922Z,24.30
2018-09-10T16:15:14.625Z,24.20
2018-09-10T16:17:43.342Z,24.20
2018-09-10T16:20:12.117Z,24.20
2018-09-10T16:22:40.497Z,24.10
2018-09-10T16:25:09.252Z,24.10
2018-09-10T16:27:38.029Z,24.20
2018-09-10T16:30:06.090Z,24.10
2018-09-10T16:32:34.813Z,24.00
2018-09-10T16:35:03.211Z,24.00
2018-09-10T16:37:31.594Z,24.00
2018-09-10T16:40:00.338Z,23.90
2018-09-10T16:42:28.741Z,23.90
2018-09-10T16:44:57.153Z,23.90
2018-09-10T16:47:25.546Z,23.90
2018-09-10T16:49:53.917Z,23.80
2018-09-10T16:52:22.684Z,23.80
2018-09-10T16:54:51.690Z,23.80
2018-09-10T16:57:20.484Z,23.80
2018-09-10T16:59:49.261Z,23.80
2018-09-10T17:02:17.997Z,23.80
2018-09-10T17:04:46.365Z,23.70
2018-09-10T17:07:14.814Z,23.70
2018-09-10T17:09:43.541Z,23.70
2018-09-10T17:12:12.312Z,23.60
2018-09-10T17:14:40.972Z,23.60
2018-09-10T17:17:09.668Z,23.50
2018-09-10T17:19:38.118Z,23.40
2018-09-10T17:22:06.889Z,23.30
2018-09-10T17:24:35.406Z,23.30
2018-09-10T17:27:03.722Z,23.30
2018-09-10T17:29:32.864Z,23.20
2018-09-10T17:32:01.231Z,23.20
2018-09-10T17:34:29.617Z,23.10
2018-09-10T17:36:58.024Z,23.10
2018-09-10T17:39:26.137Z,23.00
2018-09-10T17:41:54.416Z,23.00
2018-09-10T17:44:22.901Z,23.00
2018-09-10T17:46:51.706Z,22.90
2018-09-10T17:49:20.286Z,22.90
2018-09-10T17:51:48.665Z,22.90
2018-09-10T17:54:17.441Z,22.80
2018-09-10T17:56:45.833Z,22.80
2018-09-10T17:59:14.659Z,22.80
2018-09-10T18:01:43.257Z,22.70
2018-09-10T18:04:12.110Z,22.70
2018-09-10T18:06:40.837Z,22.70
2018-09-10T18:09:10.674Z,22.60
2018-09-10T18:11:39.310Z,22.60
2018-09-10T18:14:07.886Z,22.50
2018-09-10T18:16:36.305Z,22.50
2018-09-10T18:19:04.812Z,22.50
2018-09-10T18:21:34.161Z,22.50
2018-09-10T18:24:03.303Z,22.40
2018-09-10T18:26:31.665Z,22.40
2018-09-10T18:29:00.201Z,22.40
2018-09-10T18:31:29.014Z,22.40
2018-09-10T18:33:57.213Z,22.30
2018-09-10T18:36:25.587Z,22.30
2018-09-10T18:38:54.100Z,22.30
2018-09-10T18:41:22.741Z,22.30
2018-09-10T18:43:51.488Z,22.20
2018-09-10T18:46:20.181Z,22.20
2018-09-10T18:48:48.658Z,22.20
2018-09-10T18:51:17.219Z,22.20
2018-09-10T18:53:45.625Z,22.10
2018-09-10T18:56:14.035Z,22.10
2018-09-10T18:58:42.676Z,22.00
2018-09-10T19:01:11.640Z,22.00
2018-09-10T19:03:40.048Z,22.00
2018-09-10T19:06:08.529Z,22.00
2018-09-10T19:08:36.949Z,22.00
2018-09-10T19:11:05.153Z,21.90
2018-09-10T19:13:33.667Z,21.90
2018-09-10T19:16:02.121Z,21.80
2018-09-10T19:18:36.185Z,21.80
2018-09-10T19:21:04.566Z,21.80
2018-09-10T19:23:33.597Z,21.80
2018-09-10T19:26:02.505Z,21.70
2018-09-10T19:28:31.421Z,21.70
2018-09-10T19:30:59.949Z,21.70
2018-09-10T19:33:28.359Z,21.60
2018-09-10T19:35:57.080Z,21.60
2018-09-10T19:38:25.864Z,21.60
2018-09-10T19:40:55.091Z,21.50
2018-09-10T19:43:23.497Z,21.50
2018-09-10T19:45:51.865Z,21.50
2018-09-10T19:48:20.664Z,21.40
2018-09-10T19:50:49.047Z,21.40
2018-09-10T19:53:18.025Z,21.40
2018-09-10T19:55:46.465Z,21.30
2018-09-10T19:58:15.385Z,21.30
2018-09-10T20:00:43.518Z,21.30
2018-09-10T20:03:12.216Z,21.30
2018-09-10T20:05:40.661Z,21.30
2018-09-10T20:08:08.682Z,21.30
2018-09-10T20:10:37.088Z,21.20
2018-09-10T20:13:05.813Z,21.20
2018-09-10T20:15:34.577Z,21.10
2018-09-10T20:18:02.933Z,21.10
2018-09-10T20:20:31.668Z,21.00
2018-09-10T20:22:59.912Z,21.00
2018-09-10T20:25:28.678Z,20.90
2018-09-10T20:27:57.366Z,20.90
2018-09-10T20:30:25.996Z,20.90
2018-09-10T20:32:54.642Z,20.80
2018-09-10T20:35:23.329Z,20.80
2018-09-10T20:37:51.806Z,20.80
2018-09-10T20:40:19.909Z,20.70
2018-09-10T20:42:48.752Z,20.60
2018-09-10T20:45:17.443Z,20.60
2018-09-10T20:47:46.240Z,20.50
2018-09-10T20:50:14.714Z,20.50
2018-09-10T20:52:43.141Z,20.50
2018-09-10T20:55:11.553Z,20.50
2018-09-10T20:57:40.346Z,20.50
2018-09-10T21:00:08.780Z,20.40
2018-09-10T21:02:37.756Z,20.40
2018-09-10T21:05:06.161Z,20.30
2018-09-10T21:07:35.157Z,20.30
2018-09-10T21:10:03.418Z,20.20
2018-09-10T21:12:32.250Z,20.20
2018-09-10T21:15:00.747Z,20.10
2018-09-10T21:17:29.229Z,20.20
2018-09-10T21:19:57.922Z,20.20
2018-09-10T21:22:26.354Z,20.20
2018-09-10T21:24:55.161Z,20.20
2018-09-10T21:27:23.197Z,20.20
2018-09-10T21:29:51.979Z,20.20
2018-09-10T21:32:20.722Z,20.10
2018-09-10T21:34:49.178Z,20.10
2018-09-10T21:37:17.941Z,20.10
2018-09-10T21:39:46.416Z,20.10
2018-09-10T21:42:14.886Z,20.20
2018-09-10T21:44:43.654Z,20.20
2018-09-10T21:47:13.737Z,20.20
2018-09-10T21:49:42.829Z,20.20
2018-09-10T21:52:11.564Z,20.20
2018-09-10T21:54:40.346Z,20.20
2018-09-10T21:57:09.133Z,20.20
2018-09-10T21:59:37.573Z,20.20
2018-09-10T22:02:06.798Z,20.20
2018-09-10T22:04:35.277Z,20.20
2018-09-10T22:07:04.027Z,20.20
2018-09-10T22:09:32.813Z,20.20
2018-09-10T22:12:03.487Z,20.20
2018-09-10T22:14:32.406Z,20.20
2018-09-10T22:17:01.067Z,20.20
2018-09-10T22:19:29.823Z,20.20
2018-09-10T22:21:58.664Z,20.20
2018-09-10T22:24:27.530Z,20.10
2018-09-10T22:26:55.957Z,20.10
2018-09-10T22:29:24.350Z,20.10
2018-09-10T22:31:53.322Z,20.10
2018-09-10T22:34:21.722Z,20.10
2018-09-10T22:36:50.156Z,20.10
2018-09-10T22:39:18.588Z,20.10
2018-09-10T22:41:47.288Z,20.00
2018-09-10T22:44:15.752Z,20.00
2018-09-10T22:46:44.664Z,20.00
2018-09-10T22:49:13.108Z,19.90
2018-09-10T22:51:41.236Z,19.90
2018-09-10T22:54:09.436Z,19.90
2018-09-10T22:56:38.210Z,19.90
2018-09-10T22:59:06.369Z,19.90
2018-09-10T23:01:34.513Z,19.90
2018-09-10T23:04:02.911Z,19.90
2018-09-10T23:06:31.672Z,19.90
2018-09-10T23:09:00.571Z,19.90
2018-09-10T23:11:28.630Z,19.90
2018-09-10T23:13:57.350Z,19.90
2018-09-10T23:16:25.841Z,19.90
2018-09-10T23:18:54.278Z,19.90
2018-09-10T23:21:23.033Z,19.90
2018-09-10T23:23:51.894Z,19.90
2018-09-10T23:26:20.666Z,19.90
2018-09-10T23:28:49.369Z,19.80
2018-09-10T23:31:17.487Z,19.80
2018-09-10T23:33:45.938Z,19.80
2018-09-10T23:36:14.425Z,19.80
2018-09-10T23:38:43.064Z,19.80
2018-09-10T23:41:11.770Z,19.70
2018-09-10T23:43:40.299Z,19.70
2018-09-10T23:46:09.038Z,19.70
2018-09-10T23:48:37.790Z,19.60
2018-09-10T23:51:05.901Z,19.60
2018-09-10T23:53:34.411Z,19.50
2018-09-10T23:56:03.198Z,19.50
2018-09-10T23:58:31.883Z,19.40
